Time;durP1;ratioP1;P1;durP2;ratioP2;P2;SDS_P1;SDS_P2;PMS_P1;PMS_P2;Temp;Humidity;BMP_temperature;BMP_pressure;BME280_temperature;BME280_humidity;BME280_pressure;Samples;Min_cycle;Max_cycle;Signal;HPM_P1;HPM_P2
2022/05/27 00:01:50;;;;;;;;;1.00;1.00;;;;;18.17;49.18;102007.56;5109166;27;45246;-71
2022/05/27 00:04:15;;;;;;;;;1.67;1.33;;;;;18.24;49.61;102044.63;5117852;27;45181;-73
2022/05/27 00:06:40;;;;;;;;;0.00;0.00;;;;;18.19;49.78;102031.00;5113735;27;45956;-71
2022/05/27 00:09:06;;;;;;;;;2.00;1.00;;;;;18.22;49.95;102035.56;5112747;27;45041;-72
2022/05/27 00:11:31;;;;;;;;;0.33;0.33;;;;;17.85;49.71;101964.63;5114666;27;45139;-73
2022/05/27 00:13:57;;;;;;;;;1.33;1.00;;;;;18.33;49.67;102038.44;5114962;27;45024;-71
2022/05/27 00:16:22;;;;;;;;;1.00;1.00;;;;;18.26;49.90;102034.72;5116620;27;45244;-68
2022/05/27 00:18:48;;;;;;;;;3.00;1.00;;;;;18.16;50.13;102028.25;5118623;27;45008;-67
2022/05/27 00:21:14;;;;;;;;;2.00;1.00;;;;;18.23;50.28;102043.72;5114457;27;45099;-68
2022/05/27 00:23:40;;;;;;;;;1.00;1.00;;;;;18.15;50.20;102014.72;5123492;27;45421;-69
2022/05/27 00:26:06;;;;;;;;;1.33;1.33;;;;;18.24;50.08;102026.59;5117171;27;45154;-72
2022/05/27 00:28:32;;;;;;;;;1.67;1.67;;;;;18.29;50.40;102021.25;5110356;27;45180;-71
2022/05/27 00:30:57;;;;;;;;;2.00;2.00;;;;;18.27;49.98;102012.22;5117792;27;45203;-70
2022/05/27 00:33:24;;;;;;;;;1.00;1.00;;;;;18.29;50.00;102017.66;5126046;27;45144;-73
2022/05/27 00:35:49;;;;;;;;;2.00;1.00;;;;;18.37;50.00;102008.75;5122872;27;45244;-71
2022/05/27 00:38:15;;;;;;;;;3.00;2.00;;;;;18.39;49.83;102006.97;5116690;27;45170;-71
2022/05/27 00:40:43;;;;;;;;;1.00;1.00;;;;;18.32;50.43;102002.34;5112282;27;45073;-72
2022/05/27 00:43:10;;;;;;;;;2.00;1.00;;;;;18.19;50.51;101995.84;5118890;27;45011;-73
2022/05/27 00:45:38;;;;;;;;;1.00;1.00;;;;;18.11;50.71;102002.94;5110449;27;46530;-70
2022/05/27 00:48:06;;;;;;;;;1.67;1.67;;;;;18.00;50.97;102001.84;5120591;27;45775;-70
2022/05/27 00:50:36;;;;;;;;;3.33;1.00;;;;;17.91;51.09;101982.81;5114443;27;45080;-72
2022/05/27 00:53:03;;;;;;;;;2.33;0.00;;;;;17.83;51.64;101991.66;5117801;27;45097;-72
2022/05/27 00:55:33;;;;;;;;;1.00;1.00;;;;;17.78;51.67;101990.66;5126193;27;45095;-72
2022/05/27 00:58:28;;;;;;;;;2.33;1.00;;;;;17.53;51.79;101942.50;5116261;27;45410;-71
2022/05/27 01:00:54;;;;;;;;;1.00;1.00;;;;;17.73;51.84;101995.09;5130331;27;45196;-72
2022/05/27 01:03:21;;;;;;;;;1.67;1.33;;;;;17.73;51.66;101997.78;5112821;27;45268;-74
2022/05/27 01:05:46;;;;;;;;;2.00;0.67;;;;;17.76;51.88;101992.44;5099557;27;46054;-70
2022/05/27 01:08:18;;;;;;;;;3.00;0.33;;;;;17.81;51.88;102000.63;5112067;27;45036;-68
2022/05/27 01:11:02;;;;;;;;;1.33;1.00;;;;;17.66;52.29;101995.88;5112740;27;44875;-75
2022/05/27 01:13:57;;;;;;;;;3.00;2.00;;;;;17.53;53.18;102004.66;5114351;27;45072;-69
2022/05/27 01:17:01;;;;;;;;;2.00;2.00;;;;;17.50;53.34;101997.38;5107661;27;46135;-73
2022/05/27 01:23:08;;;;;;;;;0.67;0.67;;;;;17.19;53.23;101940.13;5113598;27;45058;-73
2022/05/27 01:25:58;;;;;;;;;1.00;1.00;;;;;17.49;53.07;101988.38;5117776;27;45017;-70
2022/05/27 01:28:54;;;;;;;;;1.67;0.67;;;;;17.52;53.27;101987.50;5121492;27;46083;-68
2022/05/27 01:31:22;;;;;;;;;2.00;1.00;;;;;17.49;53.43;101985.69;5116194;27;44932;-70
2022/05/27 01:33:59;;;;;;;;;0.00;0.00;;;;;17.46;53.43;101987.44;5120963;27;45041;-73
2022/05/27 01:37:05;;;;;;;;;0.00;0.00;;;;;17.39;53.83;101990.88;5115381;27;45062;-71
2022/05/27 01:39:51;;;;;;;;;2.67;1.00;;;;;17.33;53.99;101993.50;5097058;27;45363;-70
2022/05/27 01:42:52;;;;;;;;;1.67;1.00;;;;;17.34;54.22;101995.28;5113991;27;45131;-72
2022/05/27 01:45:39;;;;;;;;;0.00;0.00;;;;;17.25;54.94;101996.94;5118565;27;45539;-70
2022/05/27 01:48:34;;;;;;;;;2.00;2.00;;;;;17.23;54.78;101987.91;5117409;27;45468;-69
2022/05/27 01:51:22;;;;;;;;;2.67;1.00;;;;;17.04;54.40;101956.97;5109514;27;45598;-69
2022/05/27 01:53:54;;;;;;;;;1.00;1.00;;;;;17.10;55.00;101978.66;5118305;27;45339;-70
2022/05/27 01:56:19;;;;;;;;;1.67;1.67;;;;;17.10;55.09;101992.16;5113343;27;45404;-70
2022/05/27 01:58:51;;;;;;;;;2.00;1.00;;;;;17.05;54.95;101982.16;5110374;27;45357;-71
2022/05/27 02:01:23;;;;;;;;;3.00;2.00;;;;;16.93;55.01;101967.53;5118094;27;46179;-73
2022/05/27 02:03:56;;;;;;;;;1.00;1.00;;;;;16.79;55.14;101958.22;5107253;27;45346;-69
2022/05/27 02:06:31;;;;;;;;;3.33;1.67;;;;;16.89;55.00;101975.53;5109685;27;45631;-68
2022/05/27 02:09:06;;;;;;;;;2.00;2.00;;;;;17.05;54.99;101988.47;5135130;27;44940;-71
2022/05/27 02:11:32;;;;;;;;;1.00;1.00;;;;;17.08;54.74;101993.03;5122889;27;45538;-69
2022/05/27 02:14:12;;;;;;;;;1.67;1.67;;;;;17.07;54.55;101986.69;5114351;27;45020;-70
2022/05/27 02:16:55;;;;;;;;;3.00;1.00;;;;;17.09;54.44;101994.81;5115126;27;45192;-72
2022/05/27 02:19:46;;;;;;;;;1.00;1.00;;;;;17.16;54.47;101990.44;5115330;27;45255;-74
2022/05/27 02:22:21;;;;;;;;;0.67;0.67;;;;;17.03;54.48;101976.72;5115244;27;46216;-74
2022/05/27 02:25:06;;;;;;;;;1.33;0.67;;;;;17.07;54.09;101989.38;5120816;27;45516;-70
2022/05/27 02:27:41;;;;;;;;;3.67;1.67;;;;;16.79;54.46;101962.72;5114906;27;46554;-70
2022/05/27 02:30:11;;;;;;;;;1.00;1.00;;;;;16.99;54.70;101998.22;5118537;27;45184;-73
2022/05/27 02:35:07;;;;;;;;;1.00;1.00;;;;;16.83;54.63;101981.69;5118222;27;45171;-70
2022/05/27 02:35:40;;;;;;;;;1.00;1.00;;;;;17.06;54.48;101990.28;5126968;27;45069;-70
2022/05/27 02:38:06;;;;;;;;;3.00;1.67;;;;;17.09;54.63;101994.81;5130990;27;45262;-74
2022/05/27 02:41:30;;;;;;;;;1.00;1.00;;;;;17.04;54.76;101991.13;5113087;27;45511;-68
2022/05/27 02:44:22;;;;;;;;;4.00;2.33;;;;;17.07;54.21;101994.78;5108465;27;45799;-71
2022/05/27 02:47:05;;;;;;;;;11.00;4.00;;;;;17.10;54.67;101991.25;5117225;27;45225;-69
2022/05/27 02:49:52;;;;;;;;;3.00;1.33;;;;;17.14;54.02;101982.31;5119369;27;45060;-69
2022/05/27 02:52:38;;;;;;;;;2.00;2.00;;;;;17.12;54.05;101995.78;5117131;27;45269;-70
2022/05/27 02:55:15;;;;;;;;;4.67;2.00;;;;;17.15;53.95;101996.75;5119863;27;46386;-71
2022/05/27 02:57:50;;;;;;;;;3.00;3.00;;;;;17.07;54.27;101972.28;5104791;27;45255;-70
2022/05/27 03:00:26;;;;;;;;;5.00;2.00;;;;;17.27;54.03;101994.28;5106234;27;45357;-73
2022/05/27 03:02:53;;;;;;;;;4.33;2.00;;;;;17.19;53.81;101982.41;5118008;27;45277;-73
2022/05/27 03:05:25;;;;;;;;;2.00;2.00;;;;;17.25;53.70;101996.03;5113733;27;46659;-71
2022/05/27 03:08:12;;;;;;;;;4.00;2.00;;;;;17.30;53.95;101994.34;5112058;27;45473;-71
2022/05/27 03:10:57;;;;;;;;;2.67;2.67;;;;;17.38;54.04;101999.88;5111334;27;44980;-70
2022/05/27 03:13:38;;;;;;;;;4.00;2.00;;;;;17.43;54.14;101999.06;5115637;27;45119;-69
2022/05/27 03:16:28;;;;;;;;;4.00;3.00;;;;;17.43;54.11;101987.38;5109228;27;45566;-69
2022/05/27 03:19:23;;;;;;;;;2.33;2.33;;;;;17.44;54.04;101987.41;5111615;27;45488;-69
2022/05/27 03:21:58;;;;;;;;;2.33;2.33;;;;;17.48;53.92;101985.66;5119525;27;45040;-70
2022/05/27 03:24:57;;;;;;;;;4.00;2.00;;;;;17.45;54.51;101994.59;5121655;27;45026;-71
2022/05/27 03:27:28;;;;;;;;;3.67;1.33;;;;;17.44;54.11;101987.41;5116827;27;45609;-71
2022/05/27 03:30:05;;;;;;;;;3.00;1.00;;;;;17.42;54.33;101991.88;5116785;27;45265;-70
2022/05/27 03:33:01;;;;;;;;;3.33;2.00;;;;;17.48;54.34;101986.56;5112989;27;45043;-70
2022/05/27 03:35:52;;;;;;;;;3.67;2.33;;;;;17.50;54.43;101984.81;5118127;27;45341;-68
2022/05/27 03:38:43;;;;;;;;;1.33;1.33;;;;;17.47;54.31;101986.53;5117666;27;45312;-70
2022/05/27 03:41:14;;;;;;;;;3.00;2.67;;;;;17.42;54.01;101986.47;5096113;27;45113;-71
2022/05/27 03:43:40;;;;;;;;;1.00;1.00;;;;;17.31;53.93;101969.16;5121448;27;45136;-71
2022/05/27 03:46:06;;;;;;;;;5.67;2.33;;;;;17.40;54.24;101985.50;5110995;27;45063;-69
2022/05/27 03:48:34;;;;;;;;;4.00;4.00;;;;;17.33;54.68;101989.00;5125493;27;45245;-72
2022/05/27 03:51:06;;;;;;;;;3.67;3.67;;;;;17.28;54.37;101997.00;5122120;27;45217;-70
2022/05/27 03:56:15;;;;;;;;;5.67;3.67;;;;;16.67;53.77;101887.81;5116005;27;45020;-73
2022/05/27 03:58:41;;;;;;;;;7.33;4.00;;;;;17.27;54.18;102002.38;5118853;27;44986;-68
2022/05/27 04:01:06;;;;;;;;;2.33;2.00;;;;;17.29;54.37;101995.19;5117237;27;45624;-70
2022/05/27 04:03:31;;;;;;;;;6.00;4.67;;;;;17.06;54.37;101943.47;5110919;27;45526;-67
2022/05/27 04:05:57;;;;;;;;;7.67;5.00;;;;;17.01;54.02;101958.66;5118751;27;45131;-67
2022/05/27 04:08:22;;;;;;;;;3.67;3.00;;;;;17.18;54.51;101994.13;5118380;27;45778;-68
2022/05/27 04:10:48;;;;;;;;;3.33;3.33;;;;;17.18;54.02;101991.41;5109216;27;45533;-71
2022/05/27 04:13:13;;;;;;;;;4.00;4.00;;;;;17.23;54.32;101993.31;5120088;27;45050;-71
2022/05/27 04:15:38;;;;;;;;;8.00;6.33;;;;;17.28;53.54;102004.22;5121062;27;45021;-69
2022/05/27 04:18:04;;;;;;;;;2.33;2.33;;;;;17.02;54.22;101968.59;5123373;27;45629;-73
2022/05/27 04:20:29;;;;;;;;;5.00;2.33;;;;;17.03;55.04;101990.22;5114902;27;45126;-71
2022/05/27 04:22:55;;;;;;;;;5.00;5.00;;;;;16.91;55.28;102000.75;5123427;27;44936;-69
2022/05/27 04:25:21;;;;;;;;;5.00;3.33;;;;;16.79;55.54;101990.59;5114697;27;44982;-72
2022/05/27 04:27:46;;;;;;;;;6.33;6.33;;;;;16.88;55.54;102009.72;5117121;27;45529;-73
2022/05/27 04:30:12;;;;;;;;;10.67;6.00;;;;;16.87;55.24;102013.28;5113601;27;45129;-72
2022/05/27 04:32:38;;;;;;;;;5.67;5.33;;;;;15.97;56.39;101877.34;5119352;27;44976;-70
2022/05/27 04:35:04;;;;;;;;;4.67;4.67;;;;;16.75;56.42;102002.22;5124707;27;45405;-71
2022/05/27 04:37:30;;;;;;;;;10.67;10.00;;;;;16.73;56.19;102002.19;5126147;27;45253;-69
2022/05/27 04:39:55;;;;;;;;;9.33;8.67;;;;;16.91;56.04;102012.50;5113945;27;45625;-74
2022/05/27 04:42:21;;;;;;;;;8.00;8.00;;;;;16.91;56.22;102011.56;5112286;27;45489;-70
2022/05/27 04:44:46;;;;;;;;;9.67;7.67;;;;;16.97;56.05;102008.09;5125531;27;45289;-68
2022/05/27 04:47:12;;;;;;;;;11.33;10.00;;;;;16.83;56.17;101996.97;5117352;27;45365;-75
2022/05/27 04:49:53;;;;;;;;;7.67;6.33;;;;;16.79;56.43;102005.88;5116598;27;45137;-72
2022/05/27 04:52:25;;;;;;;;;8.33;8.33;;;;;16.86;56.03;102005.16;5122104;27;45047;-71
2022/05/27 04:54:52;;;;;;;;;7.33;4.67;;;;;16.87;56.42;102012.41;5117789;27;45202;-71
2022/05/27 04:57:33;;;;;;;;;7.33;7.33;;;;;16.79;56.44;102008.59;5114766;27;45697;-69
2022/05/27 04:59:59;;;;;;;;;4.33;4.33;;;;;16.81;56.26;102014.91;5123074;27;45040;-74
2022/05/27 05:02:25;;;;;;;;;11.00;9.67;;;;;16.63;56.30;101997.47;5122099;27;45039;-70
2022/05/27 05:04:52;;;;;;;;;9.00;7.67;;;;;16.70;56.61;102012.91;5132491;27;45206;-74
2022/05/27 05:07:21;;;;;;;;;10.33;7.67;;;;;16.70;56.88;101998.53;5115820;27;46152;-71
2022/05/27 05:09:47;;;;;;;;;11.00;8.67;;;;;16.66;56.95;102002.91;5118956;27;45189;-72
2022/05/27 05:12:13;;;;;;;;;11.00;9.67;;;;;16.57;57.17;102006.34;5121877;27;45049;-71
2022/05/27 05:14:40;;;;;;;;;11.00;8.75;;;;;16.23;57.02;101956.13;5128542;27;45379;-72
2022/05/27 05:17:06;;;;;;;;;9.67;8.00;;;;;16.52;57.55;102007.13;5121691;27;45270;-72
2022/05/27 05:19:32;;;;;;;;;8.67;7.33;;;;;16.42;57.72;101997.91;5127922;27;45127;-74
2022/05/27 05:21:58;;;;;;;;;12.00;8.33;;;;;16.45;57.66;102006.09;5121051;27;45406;-72
2022/05/27 05:24:23;;;;;;;;;14.00;10.33;;;;;16.54;57.81;102017.06;5113955;27;45143;-70
2022/05/27 05:26:49;;;;;;;;;12.33;11.00;;;;;16.58;57.49;102018.03;5120135;27;45601;-73
2022/05/27 05:29:15;;;;;;;;;13.33;12.33;;;;;16.65;57.39;102009.22;5116834;27;45479;-70
2022/05/27 05:31:41;;;;;;;;;9.00;7.33;;;;;16.05;57.17;101891.00;5109055;27;46174;-68
2022/05/27 05:34:06;;;;;;;;;9.00;8.33;;;;;16.76;57.23;102007.66;5130042;27;45034;-70
2022/05/27 05:36:34;;;;;;;;;28.50;27.50;;;;;16.90;57.29;102009.75;5119453;27;45054;-70
2022/05/27 05:39:00;;;;;;;;;34.75;27.25;;;;;16.93;56.23;101999.03;5119716;27;44911;-69
2022/05/27 05:41:34;;;;;;;;;18.75;17.25;;;;;17.08;56.08;102002.03;5121633;27;45209;-71
2022/05/27 05:44:01;;;;;;;;;11.00;10.00;;;;;17.05;56.38;101993.84;5114613;27;45322;-74
2022/05/27 05:46:27;;;;;;;;;25.25;21.25;;;;;17.15;56.18;102007.56;5112991;27;45348;-70
2022/05/27 05:48:53;;;;;;;;;8.00;7.67;;;;;17.24;56.04;102010.41;5115811;27;45621;-69
2022/05/27 05:51:20;;;;;;;;;13.33;11.33;;;;;17.29;56.12;102014.09;5114947;27;45475;-72
2022/05/27 05:53:45;;;;;;;;;9.33;7.33;;;;;17.24;56.08;102014.03;5119435;27;45258;-69
2022/05/27 05:56:11;;;;;;;;;13.67;11.33;;;;;16.92;56.71;101975.59;5114931;27;44994;-72
2022/05/27 05:58:36;;;;;;;;;13.33;13.00;;;;;17.22;56.45;102017.59;5116930;27;45158;-68
2022/05/27 06:01:02;;;;;;;;;20.33;14.33;;;;;17.11;56.23;101999.38;5112328;27;45401;-72
2022/05/27 06:03:28;;;;;;;;;13.00;9.67;;;;;17.13;56.14;101986.81;5119666;27;45269;-73
2022/05/27 06:05:53;;;;;;;;;15.25;13.25;;;;;17.33;55.97;102010.59;5109307;27;45330;-70
2022/05/27 06:08:18;;;;;;;;;15.67;13.00;;;;;17.18;55.89;101983.31;5115510;27;45806;-73
2022/05/27 06:10:45;;;;;;;;;16.67;14.67;;;;;17.21;56.27;101989.69;5107703;27;45359;-71
2022/05/27 06:13:11;;;;;;;;;18.00;17.75;;;;;17.30;56.14;102011.44;5110443;27;45755;-73
2022/05/27 06:15:37;;;;;;;;;20.00;17.00;;;;;17.31;56.41;102017.78;5095225;27;46841;-72
2022/05/27 06:18:04;;;;;;;;;17.25;14.25;;;;;17.25;56.49;101996.03;5109995;27;45021;-71
2022/05/27 06:20:29;;;;;;;;;13.00;12.50;;;;;17.36;56.10;102015.16;5119500;27;45323;-71
2022/05/27 06:22:55;;;;;;;;;17.33;14.33;;;;;17.34;56.70;102014.19;5108023;27;45506;-73
2022/05/27 06:25:21;;;;;;;;;14.00;10.67;;;;;17.27;56.90;102014.09;5123261;27;45620;-72
2022/05/27 06:27:46;;;;;;;;;13.67;11.00;;;;;17.18;56.49;102010.31;5114016;27;45430;-72
2022/05/27 06:35:42;;;;;;;;;8.67;6.33;;;;;17.27;56.61;102026.69;5115447;27;45705;-76
2022/05/27 06:38:08;;;;;;;;;12.00;7.33;;;;;17.17;57.14;102008.50;5103746;27;45294;-71
2022/05/27 06:40:33;;;;;;;;;10.67;8.33;;;;;17.39;56.60;102026.94;5113271;27;45308;-72
2022/05/27 06:42:59;;;;;;;;;8.00;8.00;;;;;17.48;56.55;102026.19;5127642;27;45373;-73
2022/05/27 06:45:24;;;;;;;;;32.50;30.00;;;;;17.47;56.23;102019.88;5113068;27;47468;-76
2022/05/27 06:47:50;;;;;;;;;17.25;16.25;;;;;17.42;56.41;102004.44;5115301;27;44975;-73
2022/05/27 06:50:15;;;;;;;;;12.33;10.67;;;;;17.49;56.55;102009.09;5114890;27;45583;-74
2022/05/27 06:52:41;;;;;;;;;10.00;8.33;;;;;17.47;56.89;102018.94;5123091;27;45156;-72
2022/05/27 06:55:15;;;;;;;;;3.00;3.00;;;;;17.40;56.96;102033.25;5119108;27;45647;-72
2022/05/27 06:57:40;;;;;;;;;5.00;4.00;;;;;17.39;57.13;102035.03;5124545;27;45092;-73
2022/05/27 07:00:08;;;;;;;;;18.00;16.67;;;;;17.47;56.89;102037.84;5114063;27;45332;-74
2022/05/27 07:02:34;;;;;;;;;10.33;8.00;;;;;17.38;57.08;102006.19;5121412;27;45317;-72
2022/05/27 07:04:59;;;;;;;;;8.00;8.00;;;;;17.30;56.53;101978.13;5126699;27;45916;-72
2022/05/27 07:07:30;;;;;;;;;6.00;6.00;;;;;17.27;56.98;101979.00;5120683;27;45324;-73
2022/05/27 07:09:55;;;;;;;;;7.67;7.67;;;;;17.43;57.13;102036.91;5114902;27;44943;-74
2022/05/27 07:12:21;;;;;;;;;8.00;5.33;;;;;17.42;57.44;102023.34;5122604;27;45027;-71
2022/05/27 07:14:46;;;;;;;;;8.67;7.00;;;;;17.30;56.55;101995.22;5120787;27;45892;-74
2022/05/27 07:17:12;;;;;;;;;12.00;11.67;;;;;17.31;56.96;101988.06;5113973;27;45684;-75
2022/05/27 07:19:39;;;;;;;;;11.00;9.67;;;;;17.36;57.21;101999.84;5129781;27;45217;-74
2022/05/27 07:22:09;;;;;;;;;16.00;11.67;;;;;17.30;56.61;101991.63;5111609;27;45232;-72
2022/05/27 07:24:36;;;;;;;;;8.67;8.33;;;;;17.45;57.10;102024.31;5114745;27;45842;-71
2022/05/27 07:27:02;;;;;;;;;11.00;9.67;;;;;17.60;56.89;102028.19;5093585;27;45500;-72
2022/05/27 07:29:27;;;;;;;;;13.67;10.67;;;;;17.55;56.54;102000.19;5112685;27;45194;-74
2022/05/27 07:31:53;;;;;;;;;11.67;11.00;;;;;17.56;56.35;101988.50;5129597;27;45110;-76
2022/05/27 07:34:18;;;;;;;;;8.33;8.33;;;;;17.73;56.20;102019.41;5119894;27;45630;-73
2022/05/27 07:36:43;;;;;;;;;13.00;10.00;;;;;17.79;56.44;102016.81;5121776;27;45271;-74
2022/05/27 07:39:09;;;;;;;;;11.33;8.33;;;;;17.84;56.15;102011.50;5110722;27;45435;-73
2022/05/27 07:41:35;;;;;;;;;8.67;6.00;;;;;17.96;55.71;102036.06;5108884;27;45839;-71
2022/05/27 07:44:01;;;;;;;;;11.00;8.67;;;;;17.87;56.03;102008.88;5114880;27;46063;-73
2022/05/27 07:46:28;;;;;;;;;9.33;9.33;;;;;17.90;55.56;101989.09;5114132;27;45378;-72
2022/05/27 07:48:55;;;;;;;;;9.00;9.00;;;;;18.17;55.35;102024.69;5083265;27;45411;-71
2022/05/27 07:51:21;;;;;;;;;15.33;9.33;;;;;18.17;55.57;102031.91;5083885;27;45660;-73
2022/05/27 07:53:46;;;;;;;;;10.33;8.67;;;;;18.20;55.40;102042.78;5114873;27;46779;-70
2022/05/27 07:56:12;;;;;;;;;9.33;9.00;;;;;18.23;55.39;102023.84;5114598;27;45485;-72
2022/05/27 07:58:38;;;;;;;;;13.33;11.33;;;;;18.11;55.12;101996.63;5115065;27;45244;-70
2022/05/27 08:01:05;;;;;;;;;9.33;7.67;;;;;18.17;55.32;102027.38;5097242;27;45524;-73
2022/05/27 08:03:31;;;;;;;;;21.25;17.75;;;;;18.30;54.96;102033.00;5114905;27;46001;-72
2022/05/27 08:05:59;;;;;;;;;10.67;9.33;;;;;18.18;55.22;102013.00;5114757;27;45415;-73
2022/05/27 08:08:24;;;;;;;;;10.67;10.00;;;;;18.33;55.00;102036.66;5114834;27;45303;-71
2022/05/27 08:10:50;;;;;;;;;11.67;10.00;;;;;18.24;54.56;102006.75;5115166;27;45732;-72
2022/05/27 08:13:16;;;;;;;;;15.33;11.33;;;;;18.19;55.02;102006.66;5082884;27;46952;-72
2022/05/27 08:15:42;;;;;;;;;10.00;8.67;;;;;18.28;55.15;102037.44;5115413;27;45413;-73
2022/05/27 08:18:08;;;;;;;;;10.00;8.33;;;;;18.13;55.59;102030.00;5115590;27;45348;-73
2022/05/27 08:20:35;;;;;;;;;11.67;10.67;;;;;17.83;55.71;101982.63;5116000;27;45350;-71
2022/05/27 08:23:02;;;;;;;;;10.33;8.00;;;;;18.00;55.42;102023.50;5102788;27;46104;-73
2022/05/27 08:25:28;;;;;;;;;9.33;9.33;;;;;18.14;55.80;102032.75;5102957;27;45548;-71
2022/05/27 08:27:54;;;;;;;;;9.00;7.00;;;;;17.88;55.69;101982.75;5094585;27;45413;-72
2022/05/27 08:30:28;;;;;;;;;6.67;6.67;;;;;17.86;55.59;101967.38;5095180;27;45783;-71
2022/05/27 08:32:57;;;;;;;;;11.67;9.67;;;;;18.22;55.46;102020.25;5107472;27;46411;-71
2022/05/27 08:38:11;;;;;;;;;21.00;17.67;;;;;18.36;54.95;101997.88;5114543;27;45358;-73
2022/05/27 08:40:52;;;;;;;;;9.00;6.33;;;;;18.50;55.28;102042.31;5114496;27;45377;-75
2022/05/27 08:43:42;;;;;;;;;5.00;5.00;;;;;18.46;55.18;102026.00;5113868;27;45393;-71
2022/05/27 08:46:45;;;;;;;;;8.33;6.00;;;;;18.47;55.43;102023.31;5095072;27;45618;-74
2022/05/27 08:49:17;;;;;;;;;8.33;5.00;;;;;18.24;55.42;101987.81;5114437;27;45408;-76
2022/05/27 08:51:49;;;;;;;;;7.00;5.00;;;;;18.31;55.95;102007.75;5114351;27;45411;-72
2022/05/27 08:54:35;;;;;;;;;6.00;4.67;;;;;18.29;55.75;102001.41;5114244;27;46220;-73
2022/05/27 08:59:57;;;;;;;;;8.67;8.67;;;;;18.57;56.03;102032.47;5094402;27;45290;-72
2022/05/27 09:02:36;;;;;;;;;6.33;6.33;;;;;18.62;55.92;102027.13;5094739;27;45316;-72
2022/05/27 09:05:15;;;;;;;;;5.00;5.00;;;;;18.17;56.18;101948.94;5108725;27;46550;-74
2022/05/27 09:08:09;;;;;;;;;3.67;3.67;;;;;18.71;55.94;102033.59;5114160;27;45397;-75
2022/05/27 09:11:07;;;;;;;;;69.25;55.25;;;;;18.62;56.20;102013.59;5076125;27;45649;-75
2022/05/27 09:13:56;;;;;;;;;13.00;10.67;;;;;18.88;55.54;102039.25;5095837;27;45336;-72
2022/05/27 09:16:38;;;;;;;;;7.00;5.00;;;;;18.85;55.78;102043.72;5092732;27;45558;-73
2022/05/27 09:19:13;;;;;;;;;4.33;4.33;;;;;18.62;55.79;102019.91;5108276;27;45008;-73
2022/05/27 09:21:52;;;;;;;;;4.67;4.67;;;;;18.69;56.25;102043.50;5114462;27;45489;-73
2022/05/27 09:24:46;;;;;;;;;4.33;4.33;;;;;18.62;56.48;102040.66;5114226;27;45579;-72
2022/05/27 09:27:16;;;;;;;;;5.67;5.00;;;;;18.58;56.46;102023.47;5113277;27;45536;-73
2022/05/27 09:29:57;;;;;;;;;9.00;7.00;;;;;18.62;56.33;102021.72;5112831;27;45486;-75
2022/05/27 09:32:44;;;;;;;;;5.67;4.67;;;;;18.79;56.25;102030.94;5075325;27;45576;-73
2022/05/27 09:35:13;;;;;;;;;6.00;6.00;;;;;18.85;56.31;102033.78;5099616;27;45503;-76
2022/05/27 09:37:43;;;;;;;;;8.33;5.00;;;;;18.83;56.26;102035.56;5076773;27;48011;-72
2022/05/27 09:40:28;;;;;;;;;4.50;4.00;;;;;18.79;56.18;102025.53;5113504;27;45445;-71
2022/05/27 09:43:15;;;;;;;;;6.33;6.33;;;;;18.83;56.39;102038.28;5113829;27;45523;-75
2022/05/27 09:45:43;;;;;;;;;5.00;3.00;;;;;18.72;56.21;102018.22;5116199;27;45385;-73
2022/05/27 09:48:10;;;;;;;;;5.67;5.67;;;;;18.49;56.34;101974.63;5116866;27;46256;-70
2022/05/27 09:50:38;;;;;;;;;11.33;6.00;;;;;18.86;56.23;102032.91;5117076;27;45459;-73
2022/05/27 09:53:06;;;;;;;;;8.33;7.00;;;;;18.66;56.05;101988.38;5117642;27;45773;-71
2022/05/27 09:55:48;;;;;;;;;7.33;6.00;;;;;19.02;56.31;102038.50;5107496;27;45459;-72
2022/05/27 09:58:23;;;;;;;;;7.33;6.67;;;;;19.06;56.56;102040.38;5097005;27;45393;-73
2022/05/27 10:00:49;;;;;;;;;6.33;6.33;;;;;18.88;56.78;102012.16;5078584;27;45462;-71
2022/05/27 10:03:38;;;;;;;;;7.00;5.00;;;;;19.03;56.14;102021.38;5116991;27;45489;-73
2022/05/27 10:06:06;;;;;;;;;7.67;7.67;;;;;19.15;56.27;102044.09;5116664;27;45266;-73
2022/05/27 10:08:50;;;;;;;;;9.00;6.00;;;;;19.12;55.97;102030.53;5116328;27;47199;-71
2022/05/27 10:11:19;;;;;;;;;6.00;5.00;;;;;19.27;55.28;102021.66;5116647;27;45430;-70
2022/05/27 10:13:46;;;;;;;;;7.00;4.33;;;;;19.38;55.29;102018.13;5117189;27;45352;-73
2022/05/27 10:16:20;;;;;;;;;7.00;7.00;;;;;19.32;55.13;101995.50;5117149;27;45477;-72
2022/05/27 10:18:45;;;;;;;;;7.67;7.00;;;;;19.56;54.90;102004.75;5118213;27;45355;-73
2022/05/27 10:21:18;;;;;;;;;7.00;7.00;;;;;19.46;54.74;101976.66;5118070;27;45574;-73
2022/05/27 10:23:46;;;;;;;;;6.33;5.33;;;;;18.88;54.73;101841.56;5118167;27;45306;-72
2022/05/27 10:26:24;;;;;;;;;7.00;7.00;;;;;19.95;54.26;101999.72;5099709;27;45344;-70
2022/05/27 10:29:04;;;;;;;;;7.33;6.00;;;;;20.12;53.55;101994.41;5116206;27;45511;-74
2022/05/27 10:31:30;;;;;;;;;9.33;8.67;;;;;20.03;53.19;101966.31;5115882;27;45495;-73
2022/05/27 10:33:56;;;;;;;;;6.33;6.33;;;;;20.33;52.78;101994.53;5116407;27;45417;-70
2022/05/27 10:37:03;;;;;;;;;5.00;3.67;;;;;20.47;52.16;102005.47;5116672;27;45402;-72
2022/05/27 10:39:42;;;;;;;;;5.33;3.67;;;;;20.52;51.97;102013.63;5072098;27;45628;-70
2022/05/27 10:42:49;;;;;;;;;4.33;4.33;;;;;20.07;51.96;101929.25;5109451;27;45614;-71
2022/05/27 10:45:38;;;;;;;;;7.00;4.67;;;;;20.50;52.30;101999.16;5065880;28;45520;-72
2022/05/27 10:48:29;;;;;;;;;4.00;3.33;;;;;20.55;51.99;102000.97;5069456;28;45526;-74
2022/05/27 10:51:08;;;;;;;;;5.33;3.67;;;;;20.54;52.22;102009.13;5099996;27;45512;-75
2022/05/27 10:54:11;;;;;;;;;4.33;3.00;;;;;20.51;52.47;102003.66;5115592;27;45307;-74
2022/05/27 11:02:04;;;;;;;;;6.00;6.00;;;;;20.38;52.38;101979.19;5115198;27;45414;-73
2022/05/27 11:02:43;;;;;;;;;6.33;6.33;;;;;20.66;52.07;102008.34;5115501;27;45864;-72
2022/05/27 11:05:21;;;;;;;;;6.00;4.33;;;;;20.54;52.31;102010.03;5115633;27;45484;-70
2022/05/27 11:08:25;;;;;;;;;7.33;5.33;;;;;20.44;52.54;102003.66;5115454;27;45450;-77
2022/05/27 11:11:07;;;;;;;;;9.00;5.33;;;;;20.28;52.47;101992.69;5116221;27;45422;-73
2022/05/27 11:17:08;;;;;;;;;9.67;8.00;;;;;20.43;52.53;102006.34;5115310;27;45302;-70
2022/05/27 11:19:47;;;;;;;;;3.00;3.00;;;;;20.36;52.95;102019.00;5111552;27;45453;-72
2022/05/27 11:22:27;;;;;;;;;7.33;7.33;;;;;20.33;52.65;101999.97;5116438;27;45378;-72
2022/05/27 11:24:58;;;;;;;;;5.67;4.33;;;;;20.38;52.64;102003.63;5114907;27;45927;-71
2022/05/27 11:27:48;;;;;;;;;12.33;9.33;;;;;20.40;52.52;102000.91;5115242;27;45470;-71
2022/05/27 11:30:51;;;;;;;;;7.33;7.33;;;;;20.47;52.77;102007.28;5113920;27;45492;-74
2022/05/27 11:33:40;;;;;;;;;6.00;4.67;;;;;20.40;52.64;101998.19;5102160;27;45346;-77
2022/05/27 11:36:30;;;;;;;;;5.00;4.00;;;;;20.28;52.84;101996.31;5115425;27;45313;-71
2022/05/27 11:39:23;;;;;;;;;11.00;8.00;;;;;20.25;53.14;101996.28;5111107;27;45376;-73
2022/05/27 11:41:48;;;;;;;;;9.67;7.00;;;;;20.43;52.76;101993.69;5115264;27;45379;-77
2022/05/27 11:44:23;;;;;;;;;5.00;5.00;;;;;20.57;52.46;101987.41;5115630;27;45437;-73
2022/05/27 11:47:01;;;;;;;;;6.00;5.00;;;;;20.73;51.73;101986.63;5114892;27;45440;-73
2022/05/27 11:49:42;;;;;;;;;7.67;7.00;;;;;20.82;51.85;101965.81;5096230;27;45306;-72
2022/05/27 11:52:27;;;;;;;;;7.67;6.00;;;;;21.04;51.10;101978.59;5115179;27;45597;-72
2022/05/27 11:55:08;;;;;;;;;15.00;12.00;;;;;20.87;51.23;101942.28;5115597;27;45271;-76
2022/05/27 11:57:39;;;;;;;;;9.67;5.67;;;;;20.99;50.98;101981.28;5115089;27;46176;-72
2022/05/27 12:00:12;;;;;;;;;10.00;10.00;;;;;20.34;51.24;101865.16;5114935;27;45469;-74
2022/05/27 12:02:50;;;;;;;;;6.67;6.00;;;;;20.77;51.27;101944.06;5114994;27;45456;-74
2022/05/27 12:05:24;;;;;;;;;8.00;5.67;;;;;20.96;51.32;101972.22;5096853;27;45596;-76
2022/05/27 12:08:04;;;;;;;;;7.33;6.00;;;;;20.94;51.26;101976.75;5095808;27;46698;-76
2022/05/27 12:10:53;;;;;;;;;7.33;6.00;;;;;20.82;51.93;101965.81;5116068;27;45348;-76
2022/05/27 12:13:21;;;;;;;;;6.00;6.00;;;;;20.88;51.36;101972.19;5116933;27;45572;-73
2022/05/27 12:15:52;;;;;;;;;7.33;5.00;;;;;20.82;52.08;101974.88;5097616;27;45416;-70